createdAt,value
2022-08-03T00:02:50.438Z,59.55
2022-08-03T00:06:04.120Z,60.02
2022-08-03T00:09:10.015Z,61.09
2022-08-03T00:12:14.251Z,61.86
2022-08-03T00:15:18.759Z,64.45
2022-08-03T00:18:23.095Z,65.47
2022-08-03T00:21:27.335Z,64.27
2022-08-03T00:24:31.411Z,63.43
2022-08-03T00:27:35.477Z,61.11
2022-08-03T00:30:39.810Z,60.97
2022-08-03T00:33:58.905Z,60.35
2022-08-03T00:37:07.185Z,60.01
2022-08-03T00:40:13.972Z,59.37
2022-08-03T00:43:18.296Z,57.65
2022-08-03T00:46:22.155Z,58.06
2022-08-03T00:49:26.229Z,59.42
2022-08-03T00:52:30.147Z,60.61
2022-08-03T00:55:36.005Z,61.24
2022-08-03T00:58:40.132Z,61.88
2022-08-03T01:01:44.286Z,64.18
2022-08-03T01:04:48.332Z,64.36
2022-08-03T01:08:07.861Z,62.63
2022-08-03T01:11:19.256Z,62.64
2022-08-03T01:14:32.533Z,60.77
2022-08-03T01:17:45.088Z,60.83
2022-08-03T01:20:58.231Z,59.98
2022-08-03T01:24:23.574Z,59.38
2022-08-03T01:27:42.255Z,57.84
2022-08-03T01:30:47.839Z,58.19
2022-08-03T01:33:59.218Z,59.28
2022-08-03T01:37:08.019Z,60.50
2022-08-03T01:40:14.526Z,61.23
2022-08-03T01:43:58.986Z,62.18
2022-08-03T01:46:50.782Z,65.24
2022-08-03T01:49:57.700Z,64.66
2022-08-03T01:53:03.133Z,63.23
2022-08-03T01:56:08.648Z,60.90
2022-08-03T01:59:14.993Z,60.94
2022-08-03T02:02:33.608Z,59.72
2022-08-03T02:05:41.131Z,58.02
2022-08-03T02:08:47.558Z,58.53
2022-08-03T02:11:53.188Z,59.69
2022-08-03T02:14:59.936Z,60.85
2022-08-03T02:18:09.948Z,61.38
2022-08-03T02:21:55.950Z,62.50
2022-08-03T02:24:40.112Z,63.69
2022-08-03T02:27:51.454Z,63.53
2022-08-03T02:30:57.083Z,62.02
2022-08-03T02:34:03.617Z,61.28
2022-08-03T02:37:10.226Z,60.56
2022-08-03T02:40:20.876Z,59.00
2022-08-03T02:43:26.458Z,59.35
2022-08-03T02:46:34.038Z,60.38
2022-08-03T02:49:51.675Z,61.56
2022-08-03T02:52:58.593Z,61.97
2022-08-03T02:56:04.625Z,63.55
2022-08-03T02:59:10.458Z,64.02
2022-08-03T03:02:17.232Z,62.62
2022-08-03T03:05:55.015Z,61.93
2022-08-03T03:08:51.662Z,60.28
2022-08-03T03:11:56.743Z,60.09
2022-08-03T03:15:00.731Z,59.68
2022-08-03T03:18:05.800Z,57.78
2022-08-03T03:21:11.304Z,58.56
2022-08-03T03:24:16.324Z,59.50
2022-08-03T03:27:20.840Z,60.55
2022-08-03T03:30:25.491Z,61.82
2022-08-03T03:33:29.703Z,62.61
2022-08-03T03:36:33.896Z,63.96
2022-08-03T03:39:37.725Z,64.24
2022-08-03T03:42:42.831Z,63.35
2022-08-03T03:45:47.577Z,62.37
2022-08-03T03:48:51.607Z,60.70
2022-08-03T03:51:56.336Z,59.23
2022-08-03T03:55:01.201Z,58.77
2022-08-03T03:58:06.071Z,59.56
2022-08-03T04:01:10.392Z,60.55
2022-08-03T04:04:32.709Z,61.27
2022-08-03T04:08:04.724Z,63.78
2022-08-03T04:11:14.858Z,62.95
2022-08-03T04:14:22.777Z,61.30
2022-08-03T04:17:29.185Z,59.93
2022-08-03T04:20:35.347Z,58.50
2022-08-03T04:23:44.570Z,57.14
2022-08-03T04:26:52.782Z,57.56
2022-08-03T04:29:59.641Z,58.21
2022-08-03T04:33:03.589Z,57.88
2022-08-03T04:36:12.551Z,57.27
2022-08-03T04:39:23.847Z,57.72
2022-08-03T04:42:28.368Z,57.48
2022-08-03T04:45:35.856Z,56.00
2022-08-03T04:48:44.595Z,55.66
2022-08-03T04:51:49.419Z,55.92
2022-08-03T04:54:53.389Z,55.84
2022-08-03T04:57:57.518Z,56.03
2022-08-03T05:01:01.851Z,54.38
2022-08-03T05:04:05.797Z,54.38
2022-08-03T05:07:12.433Z,54.41
2022-08-03T05:10:17.145Z,54.62
2022-08-03T05:13:21.763Z,53.96
2022-08-03T05:16:26.305Z,53.22
2022-08-03T05:19:30.397Z,52.34
2022-08-03T05:22:34.222Z,52.25
2022-08-03T05:25:38.631Z,50.41
2022-08-03T05:28:50.850Z,48.84
2022-08-03T05:31:55.421Z,49.34
2022-08-03T05:35:00.411Z,49.87
2022-08-03T05:38:33.185Z,50.58
2022-08-03T05:41:39.760Z,52.12
2022-08-03T05:44:43.726Z,51.41
2022-08-03T05:47:50.540Z,50.09
2022-08-03T05:50:54.496Z,49.01
2022-08-03T05:53:58.412Z,47.94
2022-08-03T05:57:02.636Z,46.43
2022-08-03T06:00:09.893Z,46.39
2022-08-03T06:03:16.468Z,44.90
2022-08-03T06:06:24.070Z,45.43
2022-08-03T06:10:33.196Z,44.63
2022-08-03T06:12:53.605Z,45.33
2022-08-03T06:15:57.696Z,45.35
2022-08-03T06:19:01.472Z,44.56
2022-08-03T06:22:05.362Z,43.99
2022-08-03T06:25:12.955Z,43.94
2022-08-03T06:28:51.178Z,44.73
2022-08-03T06:31:42.371Z,44.78
2022-08-03T06:34:46.347Z,45.18
2022-08-03T06:37:51.359Z,45.73
2022-08-03T06:40:55.268Z,45.86
2022-08-03T06:44:03.486Z,46.26
2022-08-03T06:47:08.140Z,46.92
2022-08-03T06:50:16.974Z,47.58
2022-08-03T06:53:22.135Z,47.75
2022-08-03T06:56:25.896Z,47.85
2022-08-03T07:00:09.904Z,47.68
2022-08-03T07:02:58.048Z,47.65
2022-08-03T07:06:03.495Z,47.44
2022-08-03T07:09:07.566Z,47.13
2022-08-03T07:12:11.935Z,46.87
2022-08-03T07:15:20.554Z,46.15
2022-08-03T07:18:42.105Z,45.18
2022-08-03T07:21:46.787Z,44.87
2022-08-03T07:24:50.791Z,44.35
2022-08-03T07:27:54.697Z,44.41
2022-08-03T07:31:00.309Z,43.83
2022-08-03T07:34:04.447Z,43.67
2022-08-03T07:37:09.667Z,43.61
2022-08-03T07:40:13.651Z,43.52
2022-08-03T07:43:18.116Z,43.30
2022-08-03T07:46:22.239Z,42.82
2022-08-03T07:49:30.891Z,42.36
2022-08-03T07:52:49.575Z,42.64
2022-08-03T07:55:53.943Z,42.61
2022-08-03T07:59:02.485Z,42.25
2022-08-03T08:02:07.316Z,42.34
2022-08-03T08:05:11.979Z,41.88
2022-08-03T08:08:16.304Z,41.45
2022-08-03T08:11:24.349Z,41.13
2022-08-03T08:14:27.252Z,41.77
2022-08-03T08:17:31.130Z,41.13
2022-08-03T08:20:38.035Z,40.87
2022-08-03T08:23:44.878Z,40.86
2022-08-03T08:26:50.890Z,40.39
2022-08-03T08:30:00.563Z,40.08
2022-08-03T08:33:22.340Z,40.23
2022-08-03T08:36:27.796Z,39.65
2022-08-03T08:39:32.008Z,39.51
2022-08-03T08:42:40.262Z,39.29
2022-08-03T08:45:49.340Z,39.25
2022-08-03T08:48:54.622Z,38.82
2022-08-03T08:52:01.158Z,38.42
2022-08-03T08:55:09.559Z,37.37
2022-08-03T08:58:20.790Z,37.23
2022-08-03T09:01:28.087Z,37.00
2022-08-03T09:04:32.257Z,36.63
2022-08-03T09:07:36.905Z,36.63
2022-08-03T09:10:43.762Z,36.00
2022-08-03T09:13:48.048Z,36.29
2022-08-03T09:17:00.398Z,35.92
2022-08-03T09:20:09.381Z,35.70
2022-08-03T09:23:59.732Z,34.79
2022-08-03T09:26:38.399Z,34.96
2022-08-03T09:29:47.845Z,35.20
2022-08-03T09:32:59.856Z,35.05
2022-08-03T09:36:04.395Z,35.20
2022-08-03T09:39:10.964Z,35.16
2022-08-03T09:42:17.139Z,35.19
2022-08-03T09:45:27.762Z,35.14
2022-08-03T09:48:34.297Z,34.73
2022-08-03T09:52:39.324Z,34.58
2022-08-03T09:55:07.664Z,34.52
2022-08-03T09:58:32.477Z,34.29
2022-08-03T10:01:38.222Z,34.58
2022-08-03T10:04:51.978Z,34.34
2022-08-03T10:07:56.231Z,34.42
2022-08-03T10:11:00.176Z,34.75
2022-08-03T10:14:06.637Z,34.28
2022-08-03T10:17:15.444Z,33.67
2022-08-03T10:20:20.008Z,33.32
2022-08-03T10:23:26.183Z,31.25
2022-08-03T10:26:33.086Z,31.61
2022-08-03T10:29:42.910Z,31.52
2022-08-03T10:32:52.498Z,31.56
2022-08-03T10:35:59.325Z,31.58
2022-08-03T10:39:04.203Z,32.27
2022-08-03T10:42:27.140Z,32.44
2022-08-03T10:45:34.264Z,32.42
2022-08-03T10:48:39.525Z,30.32
2022-08-03T10:51:44.604Z,29.37
2022-08-03T10:55:10.962Z,29.06
2022-08-03T10:58:15.459Z,27.62
2022-08-03T11:02:00.338Z,27.40
2022-08-03T11:05:36.052Z,26.14
2022-08-03T11:08:40.956Z,27.64
2022-08-03T11:11:48.558Z,27.04
2022-08-03T11:14:55.052Z,26.87
2022-08-03T11:18:11.200Z,26.95
2022-08-03T11:21:15.636Z,25.66
2022-08-03T11:24:53.435Z,25.70
2022-08-03T11:28:26.802Z,25.41
2022-08-03T11:31:50.130Z,24.83
2022-08-03T11:35:10.445Z,24.38
2022-08-03T11:38:14.380Z,25.49
2022-08-03T11:41:44.936Z,25.39
2022-08-03T11:44:50.301Z,25.80
2022-08-03T11:47:55.766Z,25.82
2022-08-03T12:01:35.912Z,25.84
2022-08-03T12:04:58.364Z,25.76
2022-08-03T12:08:09.266Z,25.81
2022-08-03T12:11:21.989Z,25.91
2022-08-03T12:14:50.665Z,25.67
2022-08-03T12:18:03.018Z,25.84
2022-08-03T12:21:12.206Z,25.61
2022-08-03T12:24:20.379Z,25.09
2022-08-03T12:27:30.381Z,25.46
2022-08-03T12:30:38.036Z,25.56
2022-08-03T12:34:07.329Z,25.26
2022-08-03T12:37:28.996Z,25.13
2022-08-03T12:40:36.673Z,24.91
2022-08-03T12:43:50.377Z,25.55
2022-08-03T12:47:00.600Z,24.75
2022-08-03T12:50:08.714Z,24.62
2022-08-03T12:53:29.643Z,24.18
2022-08-03T12:56:39.482Z,23.90
2022-08-03T12:59:53.621Z,24.62
2022-08-03T13:06:35.978Z,24.97
2022-08-03T13:09:48.909Z,25.11
2022-08-03T13:12:58.662Z,24.84
2022-08-03T13:16:07.266Z,25.26
2022-08-03T13:19:15.471Z,25.21
2022-08-03T13:22:25.785Z,25.36
2022-08-03T13:25:34.238Z,25.04
2022-08-03T13:28:39.910Z,25.17
2022-08-03T13:31:50.490Z,25.47
2022-08-03T13:34:59.136Z,25.45
2022-08-03T13:38:06.439Z,25.51
2022-08-03T13:41:16.378Z,24.58
2022-08-03T13:44:29.713Z,25.00
2022-08-03T13:47:37.946Z,24.16
2022-08-03T13:50:45.300Z,25.12
2022-08-03T13:53:55.357Z,25.38
2022-08-03T13:58:02.399Z,24.99
2022-08-03T14:00:30.070Z,25.30
2022-08-03T14:03:37.550Z,25.00
2022-08-03T14:06:49.444Z,24.80
2022-08-03T14:09:58.184Z,24.78
2022-08-03T14:13:08.160Z,24.89
2022-08-03T14:16:16.867Z,24.86
2022-08-03T14:19:24.906Z,23.73
2022-08-03T14:22:33.186Z,24.58
2022-08-03T14:25:43.215Z,24.77
2022-08-03T14:28:57.768Z,24.95
2022-08-03T14:32:10.362Z,25.01
2022-08-03T14:35:19.810Z,24.83
2022-08-03T14:38:34.459Z,24.92
2022-08-03T14:41:41.932Z,24.56
2022-08-03T14:44:49.760Z,24.37
2022-08-03T14:50:29.395Z,23.89
2022-08-03T14:51:24.564Z,23.03
2022-08-03T14:54:32.187Z,23.22
2022-08-03T14:57:39.360Z,23.77
2022-08-03T15:00:47.602Z,23.70
2022-08-03T15:03:54.983Z,23.01
2022-08-03T15:07:02.634Z,22.34
2022-08-03T15:10:10.786Z,23.28
2022-08-03T15:13:18.529Z,23.25
2022-08-03T15:16:29.841Z,22.70
2022-08-03T15:20:03.681Z,23.05
2022-08-03T15:23:04.858Z,22.92
2022-08-03T15:26:32.673Z,22.99
2022-08-03T15:30:08.920Z,22.98
2022-08-03T15:33:07.382Z,22.20
2022-08-03T15:36:14.905Z,22.02
2022-08-03T15:39:22.450Z,21.59
2022-08-03T15:42:30.794Z,21.50
2022-08-03T15:45:38.227Z,21.39
2022-08-03T15:48:45.507Z,21.44
2022-08-03T15:51:53.071Z,21.61
2022-08-03T15:55:00.351Z,21.44
2022-08-03T15:59:03.616Z,21.22
2022-08-03T16:01:35.060Z,21.12
2022-08-03T16:04:44.385Z,20.95
2022-08-03T16:08:03.063Z,20.74
2022-08-03T16:11:12.042Z,20.44
2022-08-03T16:14:35.632Z,20.39
2022-08-03T16:17:50.956Z,20.34
2022-08-03T16:21:00.243Z,20.34
2022-08-03T16:24:08.465Z,20.49
2022-08-03T16:27:37.088Z,21.15
2022-08-03T16:30:52.677Z,22.02
2022-08-03T16:34:00.948Z,22.76
2022-08-03T16:37:36.619Z,23.46
2022-08-03T16:40:36.346Z,23.91
2022-08-03T16:43:43.823Z,24.11
2022-08-03T16:46:51.202Z,24.02
2022-08-03T16:50:00.595Z,24.20
2022-08-03T16:53:16.438Z,24.28
2022-08-03T16:56:24.029Z,24.28
2022-08-03T16:59:36.282Z,24.03
2022-08-03T17:02:50.288Z,23.74
2022-08-03T17:05:59.649Z,23.54
2022-08-03T17:09:13.992Z,23.06
2022-08-03T17:12:21.496Z,23.20
2022-08-03T17:15:38.487Z,23.26
2022-08-03T17:19:01.992Z,23.23
2022-08-03T17:22:13.289Z,23.35
2022-08-03T17:25:39.932Z,23.41
2022-08-03T17:28:58.084Z,23.54
2022-08-03T17:32:09.761Z,23.65
2022-08-03T17:35:19.007Z,23.89
2022-08-03T17:38:28.959Z,23.68
2022-08-03T17:41:49.926Z,23.76
2022-08-03T17:44:58.694Z,23.94
2022-08-03T17:48:10.382Z,24.44
2022-08-03T17:51:35.024Z,24.74
2022-08-03T17:55:56.318Z,25.04
2022-08-03T17:58:38.684Z,25.46
2022-08-03T18:02:28.003Z,25.85
2022-08-03T18:06:10.418Z,26.35
2022-08-03T18:10:03.484Z,26.59
2022-08-03T18:12:51.850Z,27.38
2022-08-03T18:16:05.327Z,27.86
2022-08-03T18:19:13.739Z,28.65
2022-08-03T18:22:25.209Z,29.56
2022-08-03T18:25:45.431Z,30.28
2022-08-03T18:28:59.142Z,31.27
2022-08-03T18:32:16.718Z,31.82
2022-08-03T18:35:26.769Z,32.68
2022-08-03T18:38:55.552Z,33.49
2022-08-03T18:42:07.942Z,34.26
2022-08-03T18:45:57.351Z,35.00
2022-08-03T18:49:08.041Z,35.65
2022-08-03T18:52:19.076Z,36.20
2022-08-03T18:55:33.577Z,36.71
2022-08-03T18:58:51.451Z,37.08
2022-08-03T19:02:09.241Z,37.50
2022-08-03T19:05:21.746Z,37.96
2022-08-03T19:08:44.139Z,38.49
2022-08-03T19:12:11.051Z,38.89
2022-08-03T19:15:36.461Z,39.59
2022-08-03T19:18:48.414Z,39.82
2022-08-03T19:21:57.938Z,40.30
2022-08-03T19:25:07.163Z,40.73
2022-08-03T19:28:20.899Z,41.17
2022-08-03T19:31:40.556Z,41.35
2022-08-03T19:35:13.350Z,41.95
2022-08-03T19:38:29.510Z,42.69
2022-08-03T19:41:41.626Z,43.23
2022-08-03T19:44:57.197Z,43.56
2022-08-03T19:48:10.395Z,44.22
2022-08-03T19:51:18.280Z,44.88
2022-08-03T19:54:53.712Z,44.98
2022-08-03T19:58:03.848Z,45.25
2022-08-03T20:01:21.312Z,45.64
2022-08-03T20:04:29.214Z,46.17
2022-08-03T20:07:37.413Z,46.49
2022-08-03T20:10:49.230Z,46.87
2022-08-03T20:14:00.427Z,47.16
2022-08-03T20:17:09.322Z,47.22
2022-08-03T20:20:19.944Z,47.46
2022-08-03T20:23:37.413Z,47.54
2022-08-03T20:26:45.805Z,47.66
2022-08-03T20:30:06.429Z,47.86
2022-08-03T20:33:19.035Z,48.16
2022-08-03T20:36:27.776Z,48.49
2022-08-03T20:39:34.299Z,47.22
2022-08-03T20:42:41.688Z,48.26
2022-08-03T20:46:01.009Z,48.73
2022-08-03T20:49:19.934Z,48.93
2022-08-03T20:52:32.627Z,49.15
2022-08-03T20:55:47.954Z,49.40
2022-08-03T20:59:15.229Z,49.46
2022-08-03T21:02:29.766Z,49.60
2022-08-03T21:05:51.007Z,49.78
2022-08-03T21:09:06.638Z,49.91
2022-08-03T21:12:19.815Z,50.12
2022-08-03T21:16:11.353Z,50.31
2022-08-03T21:19:06.075Z,50.49
2022-08-03T21:22:18.021Z,50.62
2022-08-03T21:25:27.353Z,50.63
2022-08-03T21:28:35.650Z,50.59
2022-08-03T21:31:44.634Z,50.77
2022-08-03T21:34:53.437Z,51.00
2022-08-03T21:38:20.044Z,51.12
2022-08-03T21:41:28.673Z,51.24
2022-08-03T21:44:36.121Z,51.41
2022-08-03T21:47:45.140Z,51.48
2022-08-03T21:50:54.559Z,51.58
2022-08-03T21:54:04.636Z,51.83
2022-08-03T21:57:20.316Z,52.01
2022-08-03T22:00:27.795Z,51.84
2022-08-03T22:03:53.279Z,51.89
2022-08-03T22:07:02.265Z,52.46
2022-08-03T22:10:10.778Z,52.19
2022-08-03T22:13:42.897Z,52.62
2022-08-03T22:16:48.399Z,52.70
2022-08-03T22:19:55.463Z,51.84
2022-08-03T22:23:05.401Z,52.89
2022-08-03T22:26:17.096Z,53.24
2022-08-03T22:29:45.120Z,53.26
2022-08-03T22:32:56.658Z,53.46
2022-08-03T22:36:08.437Z,53.51
2022-08-03T22:39:22.804Z,53.75
2022-08-03T22:42:35.269Z,53.77
2022-08-03T22:46:08.930Z,54.04
2022-08-03T22:49:16.117Z,54.20
2022-08-03T22:52:22.640Z,53.24
2022-08-03T22:55:30.286Z,54.19
2022-08-03T22:58:38.009Z,54.26
2022-08-03T23:01:48.647Z,54.32
2022-08-03T23:04:58.940Z,54.70
2022-08-03T23:08:09.950Z,54.75
2022-08-03T23:11:19.398Z,54.88
2022-08-03T23:14:30.382Z,55.32
2022-08-03T23:17:57.824Z,55.39
2022-08-03T23:21:11.054Z,55.39
2022-08-03T23:24:29.076Z,55.60
2022-08-03T23:27:41.486Z,55.43
2022-08-03T23:30:50.981Z,56.14
2022-08-03T23:34:17.281Z,56.19
2022-08-03T23:37:25.889Z,56.20
2022-08-03T23:40:34.606Z,56.41
2022-08-03T23:43:51.807Z,56.78
2022-08-03T23:47:01.463Z,56.61
2022-08-03T23:50:09.879Z,56.93
2022-08-03T23:53:30.170Z,57.09
2022-08-03T23:56:47.117Z,57.17
